sensor_id;sensor_type;location;lat;lon;timestamp;pressure;altitude;pressure_sealevel;temperature;humidity
56456;BME280;42354;53.218;6.564;2022-09-12T00:00:48;101464.84;;;14.82;100.00
56456;BME280;42354;53.218;6.564;2022-09-12T00:03:14;101451.47;;;14.79;100.00
56456;BME280;42354;53.218;6.564;2022-09-12T00:05:44;101460.78;;;14.75;100.00
56456;BME280;42354;53.218;6.564;2022-09-12T00:08:10;101460.97;;;14.72;100.00
56456;BME280;42354;53.218;6.564;2022-09-12T00:10:38;101453.00;;;14.69;100.00
56456;BME280;42354;53.218;6.564;2022-09-12T00:13:04;101450.38;;;14.67;100.00
56456;BME280;42354;53.218;6.564;2022-09-12T00:15:29;101453.47;;;14.61;100.00
56456;BME280;42354;53.218;6.564;2022-09-12T00:17:54;101447.47;;;14.56;100.00
56456;BME280;42354;53.218;6.564;2022-09-12T00:20:20;101450.38;;;14.53;100.00
56456;BME280;42354;53.218;6.564;2022-09-12T00:22:47;101447.75;;;14.51;100.00
56456;BME280;42354;53.218;6.564;2022-09-12T00:25:18;101431.84;;;14.45;100.00
56456;BME280;42354;53.218;6.564;2022-09-12T00:27:43;101444.25;;;14.49;100.00
56456;BME280;42354;53.218;6.564;2022-09-12T00:30:09;101442.59;;;14.47;100.00
56456;BME280;42354;53.218;6.564;2022-09-12T00:32:34;101439.13;;;14.45;100.00
56456;BME280;42354;53.218;6.564;2022-09-12T00:35:00;101440.00;;;14.45;100.00
56456;BME280;42354;53.218;6.564;2022-09-12T00:37:27;101433.78;;;14.43;100.00
56456;BME280;42354;53.218;6.564;2022-09-12T00:39:52;101425.72;;;14.42;100.00
56456;BME280;42354;53.218;6.564;2022-09-12T00:42:18;101434.91;;;14.39;100.00
56456;BME280;42354;53.218;6.564;2022-09-12T00:44:47;101439.56;;;14.37;100.00
56456;BME280;42354;53.218;6.564;2022-09-12T00:47:20;101429.56;;;14.38;100.00
56456;BME280;42354;53.218;6.564;2022-09-12T00:50:08;101429.16;;;14.30;100.00
56456;BME280;42354;53.218;6.564;2022-09-12T00:52:40;101428.09;;;14.32;100.00
56456;BME280;42354;53.218;6.564;2022-09-12T00:55:12;101426.34;;;14.31;100.00
56456;BME280;42354;53.218;6.564;2022-09-12T00:57:53;101423.72;;;14.30;100.00
56456;BME280;42354;53.218;6.564;2022-09-12T01:00:23;101409.28;;;14.29;100.00
56456;BME280;42354;53.218;6.564;2022-09-12T01:02:53;101400.38;;;14.27;100.00
56456;BME280;42354;53.218;6.564;2022-09-12T01:05:21;101398.63;;;14.26;100.00
56456;BME280;42354;53.218;6.564;2022-09-12T01:07:47;101396.97;;;14.24;100.00
56456;BME280;42354;53.218;6.564;2022-09-12T01:10:14;101387.28;;;14.19;100.00
56456;BME280;42354;53.218;6.564;2022-09-12T01:12:41;101394.72;;;14.16;100.00
56456;BME280;42354;53.218;6.564;2022-09-12T01:15:08;101383.97;;;14.14;100.00
56456;BME280;42354;53.218;6.564;2022-09-12T01:37:18;101375.72;;;14.02;100.00
56456;BME280;42354;53.218;6.564;2022-09-12T01:40:06;101373.09;;;14.00;100.00
56456;BME280;42354;53.218;6.564;2022-09-12T01:45:23;101367.56;;;14.02;100.00
56456;BME280;42354;53.218;6.564;2022-09-12T01:47:56;101371.44;;;13.98;100.00
56456;BME280;42354;53.218;6.564;2022-09-12T01:50:31;101367.06;;;13.95;100.00
56456;BME280;42354;53.218;6.564;2022-09-12T01:53:07;101364.56;;;13.92;100.00
56456;BME280;42354;53.218;6.564;2022-09-12T01:55:40;101373.56;;;13.93;100.00
56456;BME280;42354;53.218;6.564;2022-09-12T01:58:26;101365.69;;;13.88;100.00
56456;BME280;42354;53.218;6.564;2022-09-12T02:01:14;101354.25;;;13.83;100.00
56456;BME280;42354;53.218;6.564;2022-09-12T02:04:05;101364.06;;;13.85;100.00
56456;BME280;42354;53.218;6.564;2022-09-12T02:06:48;101356.88;;;13.84;100.00
56456;BME280;42354;53.218;6.564;2022-09-12T02:09:20;101353.28;;;13.84;100.00
56456;BME280;42354;53.218;6.564;2022-09-12T02:11:51;101348.16;;;13.79;100.00
56456;BME280;42354;53.218;6.564;2022-09-12T02:14:26;101342.72;;;13.79;100.00
56456;BME280;42354;53.218;6.564;2022-09-12T02:16:59;101340.00;;;13.79;100.00
56456;BME280;42354;53.218;6.564;2022-09-12T02:19:52;101346.59;;;13.75;100.00
56456;BME280;42354;53.218;6.564;2022-09-12T02:22:20;101343.88;;;13.75;100.00
56456;BME280;42354;53.218;6.564;2022-09-12T02:24:49;101334.00;;;13.74;100.00
56456;BME280;42354;53.218;6.564;2022-09-12T02:27:32;101340.38;;;13.73;100.00
56456;BME280;42354;53.218;6.564;2022-09-12T02:30:05;101322.75;;;13.66;100.00
56456;BME280;42354;53.218;6.564;2022-09-12T02:40:43;101336.31;;;13.66;100.00
56456;BME280;42354;53.218;6.564;2022-09-12T02:43:08;101331.06;;;13.63;100.00
56456;BME280;42354;53.218;6.564;2022-09-12T02:45:34;101327.38;;;13.64;100.00
56456;BME280;42354;53.218;6.564;2022-09-12T02:48:05;101330.28;;;13.61;100.00
56456;BME280;42354;53.218;6.564;2022-09-12T02:50:32;101323.88;;;13.62;100.00
56456;BME280;42354;53.218;6.564;2022-09-12T02:52:59;101323.88;;;13.62;100.00
56456;BME280;42354;53.218;6.564;2022-09-12T02:55:30;101315.75;;;13.62;100.00
56456;BME280;42354;53.218;6.564;2022-09-12T02:57:56;101313.13;;;13.61;100.00
56456;BME280;42354;53.218;6.564;2022-09-12T03:00:21;101317.69;;;13.60;100.00
56456;BME280;42354;53.218;6.564;2022-09-12T03:05:39;101308.78;;;13.58;100.00
56456;BME280;42354;53.218;6.564;2022-09-12T03:14:14;101298.13;;;13.55;100.00
56456;BME280;42354;53.218;6.564;2022-09-12T03:25:26;101287.47;;;13.52;100.00
56456;BME280;42354;53.218;6.564;2022-09-12T03:28:00;101298.31;;;13.52;100.00
56456;BME280;42354;53.218;6.564;2022-09-12T03:30:39;101306.44;;;13.52;100.00
56456;BME280;42354;53.218;6.564;2022-09-12T03:33:05;101302.06;;;13.49;100.00
56456;BME280;42354;53.218;6.564;2022-09-12T03:35:34;101301.38;;;13.46;100.00
56456;BME280;42354;53.218;6.564;2022-09-12T03:37:59;101301.38;;;13.46;100.00
56456;BME280;42354;53.218;6.564;2022-09-12T03:40:26;101306.97;;;13.43;100.00
56456;BME280;42354;53.218;6.564;2022-09-12T03:42:51;101310.66;;;13.42;100.00
56456;BME280;42354;53.218;6.564;2022-09-12T03:45:17;101295.53;;;13.38;100.00
56456;BME280;42354;53.218;6.564;2022-09-12T03:47:43;101301.75;;;13.40;100.00
56456;BME280;42354;53.218;6.564;2022-09-12T03:50:09;101288.38;;;13.37;100.00
56456;BME280;42354;53.218;6.564;2022-09-12T03:52:35;101300.69;;;13.42;100.00
56456;BME280;42354;53.218;6.564;2022-09-12T03:55:01;101299.72;;;13.43;100.00
56456;BME280;42354;53.218;6.564;2022-09-12T03:57:27;101306.03;;;13.44;100.00
56456;BME280;42354;53.218;6.564;2022-09-12T03:59:53;101286.28;;;13.42;100.00
56456;BME280;42354;53.218;6.564;2022-09-12T04:02:18;101293.25;;;13.46;100.00
56456;BME280;42354;53.218;6.564;2022-09-12T04:04:44;101295.69;;;13.50;100.00
56456;BME280;42354;53.218;6.564;2022-09-12T04:07:14;101286.59;;;13.51;100.00
56456;BME280;42354;53.218;6.564;2022-09-12T04:09:40;101283.69;;;13.54;100.00
56456;BME280;42354;53.218;6.564;2022-09-12T04:12:05;101284.47;;;13.57;100.00
56456;BME280;42354;53.218;6.564;2022-09-12T04:14:31;101279.94;;;13.57;100.00
56456;BME280;42354;53.218;6.564;2022-09-12T04:16:57;101279.06;;;13.57;100.00
56456;BME280;42354;53.218;6.564;2022-09-12T04:19:22;101281.66;;;13.58;100.00
56456;BME280;42354;53.218;6.564;2022-09-12T04:21:48;101274.41;;;13.59;100.00
56456;BME280;42354;53.218;6.564;2022-09-12T04:24:13;101278.88;;;13.60;100.00
56456;BME280;42354;53.218;6.564;2022-09-12T04:26:38;101280.59;;;13.61;100.00
56456;BME280;42354;53.218;6.564;2022-09-12T04:29:03;101289.63;;;13.61;100.00
56456;BME280;42354;53.218;6.564;2022-09-12T04:31:29;101283.13;;;13.64;100.00
56456;BME280;42354;53.218;6.564;2022-09-12T04:33:59;101277.63;;;13.65;100.00
56456;BME280;42354;53.218;6.564;2022-09-12T04:36:26;101277.44;;;13.68;100.00
56456;BME280;42354;53.218;6.564;2022-09-12T04:38:52;101281.78;;;13.71;100.00
56456;BME280;42354;53.218;6.564;2022-09-12T04:41:23;101282.38;;;13.76;100.00
56456;BME280;42354;53.218;6.564;2022-09-12T04:43:54;101271.44;;;13.77;100.00
56456;BME280;42354;53.218;6.564;2022-09-12T04:46:22;101280.34;;;13.79;100.00
56456;BME280;42354;53.218;6.564;2022-09-12T04:48:48;101279.19;;;13.83;100.00
56456;BME280;42354;53.218;6.564;2022-09-12T04:51:22;101275.34;;;13.87;100.00
56456;BME280;42354;53.218;6.564;2022-09-12T04:53:53;101285.91;;;13.92;100.00
56456;BME280;42354;53.218;6.564;2022-09-12T04:56:19;101282.03;;;13.96;100.00
56456;BME280;42354;53.218;6.564;2022-09-12T04:58:46;101270.00;;;14.00;100.00
56456;BME280;42354;53.218;6.564;2022-09-12T05:01:13;101277.69;;;14.08;100.00
56456;BME280;42354;53.218;6.564;2022-09-12T05:03:40;101282.72;;;14.14;100.00
56456;BME280;42354;53.218;6.564;2022-09-12T05:06:10;101278.75;;;14.19;100.00
56456;BME280;42354;53.218;6.564;2022-09-12T05:08:35;101282.03;;;14.25;100.00
56456;BME280;42354;53.218;6.564;2022-09-12T05:11:07;101283.50;;;14.30;100.00
56456;BME280;42354;53.218;6.564;2022-09-12T05:13:34;101280.56;;;14.33;100.00
56456;BME280;42354;53.218;6.564;2022-09-12T05:16:01;101274.75;;;14.39;100.00
56456;BME280;42354;53.218;6.564;2022-09-12T05:18:31;101280.78;;;14.44;100.00
56456;BME280;42354;53.218;6.564;2022-09-12T05:20:58;101276.81;;;14.50;100.00
56456;BME280;42354;53.218;6.564;2022-09-12T05:23:24;101273.81;;;14.55;100.00
56456;BME280;42354;53.218;6.564;2022-09-12T05:25:51;101274.47;;;14.58;100.00
56456;BME280;42354;53.218;6.564;2022-09-12T05:28:18;101275.06;;;14.63;100.00
56456;BME280;42354;53.218;6.564;2022-09-12T05:30:43;101273.88;;;14.67;100.00
56456;BME280;42354;53.218;6.564;2022-09-12T05:33:09;101280.75;;;14.73;100.00
56456;BME280;42354;53.218;6.564;2022-09-12T05:35:35;101279.47;;;14.78;100.00
56456;BME280;42354;53.218;6.564;2022-09-12T05:38:02;101284.59;;;14.83;100.00
56456;BME280;42354;53.218;6.564;2022-09-12T05:40:28;101287.03;;;14.88;100.00
56456;BME280;42354;53.218;6.564;2022-09-12T05:42:53;101281.59;;;14.88;100.00
56456;BME280;42354;53.218;6.564;2022-09-12T05:45:18;101285.75;;;14.93;100.00
56456;BME280;42354;53.218;6.564;2022-09-12T05:47:47;101282.81;;;14.96;100.00
56456;BME280;42354;53.218;6.564;2022-09-12T05:50:13;101289.91;;;14.99;100.00
56456;BME280;42354;53.218;6.564;2022-09-12T05:52:38;101294.25;;;15.01;100.00
56456;BME280;42354;53.218;6.564;2022-09-12T05:55:04;101289.69;;;15.02;100.00
56456;BME280;42354;53.218;6.564;2022-09-12T05:57:29;101295.69;;;15.07;100.00
56456;BME280;42354;53.218;6.564;2022-09-12T05:59:56;101278.41;;;15.08;100.00
56456;BME280;42354;53.218;6.564;2022-09-12T06:02:22;101286.38;;;15.11;100.00
56456;BME280;42354;53.218;6.564;2022-09-12T06:04:47;101284.50;;;15.11;100.00
56456;BME280;42354;53.218;6.564;2022-09-12T06:07:13;101290.50;;;15.16;100.00
56456;BME280;42354;53.218;6.564;2022-09-12T06:09:38;101283.13;;;15.19;100.00
56456;BME280;42354;53.218;6.564;2022-09-12T06:12:04;101275.53;;;15.24;100.00
56456;BME280;42354;53.218;6.564;2022-09-12T06:14:30;101285.88;;;15.31;100.00
56456;BME280;42354;53.218;6.564;2022-09-12T06:16:57;101284.59;;;15.37;100.00
56456;BME280;42354;53.218;6.564;2022-09-12T06:19:22;101285.25;;;15.40;100.00
56456;BME280;42354;53.218;6.564;2022-09-12T06:21:49;101279.63;;;15.43;100.00
56456;BME280;42354;53.218;6.564;2022-09-12T06:24:19;101282.56;;;15.53;100.00
56456;BME280;42354;53.218;6.564;2022-09-12T06:26:46;101293.84;;;15.61;100.00
56456;BME280;42354;53.218;6.564;2022-09-12T06:29:12;101291.59;;;15.68;100.00
56456;BME280;42354;53.218;6.564;2022-09-12T06:31:39;101290.50;;;15.70;100.00
56456;BME280;42354;53.218;6.564;2022-09-12T06:34:08;101285.72;;;15.74;100.00
56456;BME280;42354;53.218;6.564;2022-09-12T06:36:37;101300.63;;;15.81;100.00
56456;BME280;42354;53.218;6.564;2022-09-12T06:39:06;101297.59;;;15.86;100.00
56456;BME280;42354;53.218;6.564;2022-09-12T06:41:32;101288.47;;;15.87;100.00
56456;BME280;42354;53.218;6.564;2022-09-12T06:43:58;101287.03;;;15.94;100.00
56456;BME280;42354;53.218;6.564;2022-09-12T06:46:25;101294.88;;;15.98;100.00
56456;BME280;42354;53.218;6.564;2022-09-12T06:48:51;101292.06;;;16.00;100.00
56456;BME280;42354;53.218;6.564;2022-09-12T06:51:18;101291.84;;;16.03;100.00
56456;BME280;42354;53.218;6.564;2022-09-12T06:53:45;101288.03;;;16.05;100.00
56456;BME280;42354;53.218;6.564;2022-09-12T06:56:17;101287.91;;;16.07;100.00
56456;BME280;42354;53.218;6.564;2022-09-12T06:58:43;101289.56;;;16.09;100.00
56456;BME280;42354;53.218;6.564;2022-09-12T07:03:41;101286.72;;;16.11;100.00
56456;BME280;42354;53.218;6.564;2022-09-12T07:06:13;101289.22;;;16.14;100.00
56456;BME280;42354;53.218;6.564;2022-09-12T07:08:39;101282.81;;;16.15;100.00
56456;BME280;42354;53.218;6.564;2022-09-12T07:11:24;101283.56;;;16.17;100.00
56456;BME280;42354;53.218;6.564;2022-09-12T07:13:51;101281.38;;;16.22;100.00
56456;BME280;42354;53.218;6.564;2022-09-12T07:16:17;101289.53;;;16.35;100.00
56456;BME280;42354;53.218;6.564;2022-09-12T07:18:43;101291.72;;;16.42;100.00
56456;BME280;42354;53.218;6.564;2022-09-12T07:21:12;101282.00;;;16.51;100.00
56456;BME280;42354;53.218;6.564;2022-09-12T07:23:38;101291.34;;;16.60;100.00
56456;BME280;42354;53.218;6.564;2022-09-12T07:26:05;101289.94;;;16.67;100.00
56456;BME280;42354;53.218;6.564;2022-09-12T07:28:32;101292.97;;;16.75;100.00
56456;BME280;42354;53.218;6.564;2022-09-12T07:31:09;101287.06;;;16.81;100.00
56456;BME280;42354;53.218;6.564;2022-09-12T07:33:35;101290.97;;;16.90;100.00
56456;BME280;42354;53.218;6.564;2022-09-12T07:36:02;101287.44;;;17.00;100.00
56456;BME280;42354;53.218;6.564;2022-09-12T07:38:28;101285.00;;;17.08;100.00
56456;BME280;42354;53.218;6.564;2022-09-12T07:40:54;101279.97;;;17.15;100.00
56456;BME280;42354;53.218;6.564;2022-09-12T07:43:19;101278.75;;;17.19;99.66
56456;BME280;42354;53.218;6.564;2022-09-12T07:45:45;101278.16;;;17.27;99.41
56456;BME280;42354;53.218;6.564;2022-09-12T07:48:11;101286.88;;;17.32;98.79
56456;BME280;42354;53.218;6.564;2022-09-12T07:50:37;101287.28;;;17.38;98.28
56456;BME280;42354;53.218;6.564;2022-09-12T07:53:03;101278.97;;;17.40;98.00
56456;BME280;42354;53.218;6.564;2022-09-12T07:55:30;101281.75;;;17.51;97.96
56456;BME280;42354;53.218;6.564;2022-09-12T07:57:55;101287.34;;;17.61;96.95
56456;BME280;42354;53.218;6.564;2022-09-12T08:00:21;101283.41;;;17.65;96.62
56456;BME280;42354;53.218;6.564;2022-09-12T08:02:50;101298.97;;;17.76;95.70
56456;BME280;42354;53.218;6.564;2022-09-12T08:05:16;101289.56;;;17.80;95.52
56456;BME280;42354;53.218;6.564;2022-09-12T08:07:41;101295.75;;;17.82;94.56
56456;BME280;42354;53.218;6.564;2022-09-12T08:10:07;101296.03;;;17.90;94.49
56456;BME280;42354;53.218;6.564;2022-09-12T08:12:33;101294.56;;;17.97;94.21
56456;BME280;42354;53.218;6.564;2022-09-12T08:14:59;101289.47;;;18.03;93.62
56456;BME280;42354;53.218;6.564;2022-09-12T08:17:25;101290.97;;;18.08;92.91
56456;BME280;42354;53.218;6.564;2022-09-12T08:19:50;101293.22;;;18.14;92.54
56456;BME280;42354;53.218;6.564;2022-09-12T08:22:17;101294.72;;;18.18;91.86
56456;BME280;42354;53.218;6.564;2022-09-12T08:24:43;101289.50;;;18.26;91.56
56456;BME280;42354;53.218;6.564;2022-09-12T08:27:10;101297.31;;;18.30;91.10
56456;BME280;42354;53.218;6.564;2022-09-12T08:29:36;101290.63;;;18.34;90.39
56456;BME280;42354;53.218;6.564;2022-09-12T08:32:02;101281.31;;;18.37;89.82
56456;BME280;42354;53.218;6.564;2022-09-12T08:34:27;101290.88;;;18.43;89.59
56456;BME280;42354;53.218;6.564;2022-09-12T08:36:52;101286.41;;;18.53;89.24
56456;BME280;42354;53.218;6.564;2022-09-12T08:39:19;101300.22;;;18.62;88.89
56456;BME280;42354;53.218;6.564;2022-09-12T08:41:56;101289.91;;;18.77;87.72
56456;BME280;42354;53.218;6.564;2022-09-12T08:45:44;101290.34;;;18.93;87.09
56456;BME280;42354;53.218;6.564;2022-09-12T08:47:42;101298.63;;;19.14;85.84
56456;BME280;42354;53.218;6.564;2022-09-12T08:57:59;101292.50;;;19.65;81.71
56456;BME280;42354;53.218;6.564;2022-09-12T09:00:47;101290.38;;;19.69;81.26
56456;BME280;42354;53.218;6.564;2022-09-12T09:03:33;101296.78;;;19.79;80.86
56456;BME280;42354;53.218;6.564;2022-09-12T09:09:32;101305.78;;;20.11;78.36
56456;BME280;42354;53.218;6.564;2022-09-12T09:17:46;101298.50;;;20.42;76.56
56456;BME280;42354;53.218;6.564;2022-09-12T09:20:34;101293.94;;;20.52;76.18
56456;BME280;42354;53.218;6.564;2022-09-12T09:23:21;101291.72;;;20.77;75.28
56456;BME280;42354;53.218;6.564;2022-09-12T09:25:57;101285.31;;;21.07;74.34
56456;BME280;42354;53.218;6.564;2022-09-12T09:28:38;101285.53;;;21.25;73.02
56456;BME280;42354;53.218;6.564;2022-09-12T09:31:23;101282.38;;;21.39;72.36
56456;BME280;42354;53.218;6.564;2022-09-12T09:33:51;101285.69;;;21.62;72.12
56456;BME280;42354;53.218;6.564;2022-09-12T09:36:24;101272.53;;;21.75;71.26
56456;BME280;42354;53.218;6.564;2022-09-12T09:39:04;101263.25;;;21.95;69.91
56456;BME280;42354;53.218;6.564;2022-09-12T09:41:48;101273.19;;;22.15;68.20
56456;BME280;42354;53.218;6.564;2022-09-12T09:44:18;101262.16;;;22.35;67.58
56456;BME280;42354;53.218;6.564;2022-09-12T09:46:44;101266.25;;;22.58;67.07
56456;BME280;42354;53.218;6.564;2022-09-12T09:49:11;101259.13;;;22.93;65.35
56456;BME280;42354;53.218;6.564;2022-09-12T09:51:40;101257.44;;;23.27;64.01
56456;BME280;42354;53.218;6.564;2022-09-12T09:56:52;101257.13;;;23.48;62.74
56456;BME280;42354;53.218;6.564;2022-09-12T09:59:25;101256.66;;;23.70;62.13
56456;BME280;42354;53.218;6.564;2022-09-12T10:01:56;101256.97;;;23.85;61.11
56456;BME280;42354;53.218;6.564;2022-09-12T10:04:29;101250.59;;;24.10;60.80
56456;BME280;42354;53.218;6.564;2022-09-12T10:06:59;101243.56;;;24.42;59.14
56456;BME280;42354;53.218;6.564;2022-09-12T10:09:26;101252.66;;;24.68;58.15
56456;BME280;42354;53.218;6.564;2022-09-12T10:11:53;101248.94;;;24.94;56.71
56456;BME280;42354;53.218;6.564;2022-09-12T10:14:27;101246.94;;;25.12;54.35
56456;BME280;42354;53.218;6.564;2022-09-12T10:16:55;101244.75;;;25.40;54.95
56456;BME280;42354;53.218;6.564;2022-09-12T10:19:36;101243.03;;;25.63;53.64
56456;BME280;42354;53.218;6.564;2022-09-12T10:22:03;101231.84;;;25.81;53.22
56456;BME280;42354;53.218;6.564;2022-09-12T10:24:47;101231.84;;;25.81;53.14
56456;BME280;42354;53.218;6.564;2022-09-12T10:27:22;101226.31;;;25.73;52.51
56456;BME280;42354;53.218;6.564;2022-09-12T10:30:00;101221.47;;;25.83;52.12
56456;BME280;42354;53.218;6.564;2022-09-12T10:32:35;101217.31;;;25.87;52.71
56456;BME280;42354;53.218;6.564;2022-09-12T10:35:04;101213.00;;;26.01;52.32
56456;BME280;42354;53.218;6.564;2022-09-12T10:37:35;101209.00;;;26.20;51.41
56456;BME280;42354;53.218;6.564;2022-09-12T10:40:03;101208.78;;;26.29;50.42
56456;BME280;42354;53.218;6.564;2022-09-12T10:42:43;101208.78;;;26.38;49.31
56456;BME280;42354;53.218;6.564;2022-09-12T10:45:30;101215.47;;;26.51;49.09
56456;BME280;42354;53.218;6.564;2022-09-12T10:48:01;101209.91;;;26.59;47.64
56456;BME280;42354;53.218;6.564;2022-09-12T10:53:21;101211.00;;;26.50;45.76
56456;BME280;42354;53.218;6.564;2022-09-12T10:56:09;101202.16;;;26.55;46.33
56456;BME280;42354;53.218;6.564;2022-09-12T11:06:41;101191.44;;;26.52;47.21
56456;BME280;42354;53.218;6.564;2022-09-12T11:20:20;101187.16;;;27.34;45.94
56456;BME280;42354;53.218;6.564;2022-09-12T15:06:29;100963.22;;;26.02;44.72
56456;BME280;42354;53.218;6.564;2022-09-12T15:08:57;100973.00;;;26.13;44.85
56456;BME280;42354;53.218;6.564;2022-09-12T15:11:23;100959.84;;;26.15;44.84
56456;BME280;42354;53.218;6.564;2022-09-12T15:13:49;100960.72;;;26.15;45.00
56456;BME280;42354;53.218;6.564;2022-09-12T15:16:15;100958.94;;;26.22;44.89
56456;BME280;42354;53.218;6.564;2022-09-12T15:18:41;100956.00;;;26.24;45.17
56456;BME280;42354;53.218;6.564;2022-09-12T15:21:11;100955.31;;;26.22;45.59
56456;BME280;42354;53.218;6.564;2022-09-12T15:23:50;100946.22;;;26.13;45.72
56456;BME280;42354;53.218;6.564;2022-09-12T15:26:21;100943.13;;;26.08;45.88
56456;BME280;42354;53.218;6.564;2022-09-12T15:28:47;100949.53;;;26.09;45.85
56456;BME280;42354;53.218;6.564;2022-09-12T15:31:25;100937.28;;;26.03;45.97
56456;BME280;42354;53.218;6.564;2022-09-12T15:33:51;100939.00;;;26.04;46.34
56456;BME280;42354;53.218;6.564;2022-09-12T15:36:19;100934.72;;;26.01;46.66
56456;BME280;42354;53.218;6.564;2022-09-12T15:38:53;100940.56;;;25.98;46.56
56456;BME280;42354;53.218;6.564;2022-09-12T15:41:27;100938.84;;;25.97;47.03
56456;BME280;42354;53.218;6.564;2022-09-12T15:43:53;100929.03;;;25.95;47.35
56456;BME280;42354;53.218;6.564;2022-09-12T15:46:19;100930.13;;;25.86;47.35
56456;BME280;42354;53.218;6.564;2022-09-12T15:48:45;100928.63;;;25.75;47.73
56456;BME280;42354;53.218;6.564;2022-09-12T15:51:12;100923.47;;;25.64;48.34
56456;BME280;42354;53.218;6.564;2022-09-12T15:53:38;100920.94;;;25.54;48.51
56456;BME280;42354;53.218;6.564;2022-09-12T15:56:04;100919.91;;;25.47;49.00
56456;BME280;42354;53.218;6.564;2022-09-12T15:58:29;100919.41;;;25.44;49.35
56456;BME280;42354;53.218;6.564;2022-09-12T16:00:55;100913.22;;;25.42;49.52
56456;BME280;42354;53.218;6.564;2022-09-12T16:03:27;100907.66;;;25.50;49.10
56456;BME280;42354;53.218;6.564;2022-09-12T16:05:58;100899.16;;;25.59;49.24
56456;BME280;42354;53.218;6.564;2022-09-12T16:08:27;100898.03;;;25.77;49.17
56456;BME280;42354;53.218;6.564;2022-09-12T16:10:55;100895.91;;;25.87;48.22
56456;BME280;42354;53.218;6.564;2022-09-12T16:13:22;100889.34;;;25.88;48.29
56456;BME280;42354;53.218;6.564;2022-09-12T16:15:48;100875.53;;;25.88;48.33
56456;BME280;42354;53.218;6.564;2022-09-12T16:18:13;100877.06;;;25.90;48.26
56456;BME280;42354;53.218;6.564;2022-09-12T16:20:39;100879.53;;;25.85;47.53
56456;BME280;42354;53.218;6.564;2022-09-12T16:23:06;100874.00;;;25.85;47.49
56456;BME280;42354;53.218;6.564;2022-09-12T16:25:31;100878.03;;;25.75;47.91
56456;BME280;42354;53.218;6.564;2022-09-12T16:27:59;100868.00;;;25.43;48.08
56456;BME280;42354;53.218;6.564;2022-09-12T16:30:25;100863.13;;;25.14;48.47
56456;BME280;42354;53.218;6.564;2022-09-12T16:32:51;100857.28;;;24.92;48.65
56456;BME280;42354;53.218;6.564;2022-09-12T16:35:16;100856.84;;;24.72;49.28
56456;BME280;42354;53.218;6.564;2022-09-12T16:37:42;100847.84;;;24.79;48.90
56456;BME280;42354;53.218;6.564;2022-09-12T16:40:07;100859.25;;;24.75;49.12
56456;BME280;42354;53.218;6.564;2022-09-12T16:42:33;100847.69;;;24.72;49.21
56456;BME280;42354;53.218;6.564;2022-09-12T16:45:00;100846.84;;;24.63;49.22
56456;BME280;42354;53.218;6.564;2022-09-12T16:47:25;100848.59;;;24.48;49.57
56456;BME280;42354;53.218;6.564;2022-09-12T16:49:50;100848.44;;;24.41;50.42
56456;BME280;42354;53.218;6.564;2022-09-12T16:52:16;100850.34;;;24.41;50.16
56456;BME280;42354;53.218;6.564;2022-09-12T16:54:42;100848.94;;;24.53;50.06
56456;BME280;42354;53.218;6.564;2022-09-12T16:57:09;100845.41;;;25.00;48.71
56456;BME280;42354;53.218;6.564;2022-09-12T16:59:34;100844.31;;;25.48;47.84
56456;BME280;42354;53.218;6.564;2022-09-12T17:01:59;100844.19;;;25.73;47.00
56456;BME280;42354;53.218;6.564;2022-09-12T17:04:25;100841.38;;;25.81;46.67
56456;BME280;42354;53.218;6.564;2022-09-12T17:06:51;100840.53;;;25.80;46.47
56456;BME280;42354;53.218;6.564;2022-09-12T17:09:16;100842.38;;;25.88;46.29
56456;BME280;42354;53.218;6.564;2022-09-12T17:11:44;100845.13;;;25.88;46.17
56456;BME280;42354;53.218;6.564;2022-09-12T17:14:09;100840.84;;;25.54;46.70
56456;BME280;42354;53.218;6.564;2022-09-12T17:16:38;100836.22;;;25.08;47.64
56456;BME280;42354;53.218;6.564;2022-09-12T17:19:04;100837.19;;;24.67;48.88
56456;BME280;42354;53.218;6.564;2022-09-12T17:21:30;100828.81;;;24.28;50.01
56456;BME280;42354;53.218;6.564;2022-09-12T17:23:56;100835.00;;;24.06;50.91
56456;BME280;42354;53.218;6.564;2022-09-12T17:26:21;100830.69;;;23.87;51.43
56456;BME280;42354;53.218;6.564;2022-09-12T17:28:47;100829.09;;;23.68;51.92
56456;BME280;42354;53.218;6.564;2022-09-12T17:31:13;100815.94;;;23.46;52.88
56456;BME280;42354;53.218;6.564;2022-09-12T17:33:39;100833.09;;;23.24;53.23
56456;BME280;42354;53.218;6.564;2022-09-12T17:36:09;100819.75;;;23.03;54.46
56456;BME280;42354;53.218;6.564;2022-09-12T17:38:36;100817.25;;;22.83;55.08
56456;BME280;42354;53.218;6.564;2022-09-12T17:41:11;100825.72;;;22.64;55.69
56456;BME280;42354;53.218;6.564;2022-09-12T17:43:40;100824.44;;;22.50;56.29
56456;BME280;42354;53.218;6.564;2022-09-12T17:46:06;100829.50;;;22.37;56.45
56456;BME280;42354;53.218;6.564;2022-09-12T17:48:32;100829.75;;;22.26;56.89
56456;BME280;42354;53.218;6.564;2022-09-12T17:50:58;100829.16;;;22.14;57.44
56456;BME280;42354;53.218;6.564;2022-09-12T17:53:30;100833.16;;;22.02;57.89
56456;BME280;42354;53.218;6.564;2022-09-12T17:56:00;100834.78;;;21.95;58.47
56456;BME280;42354;53.218;6.564;2022-09-12T17:58:25;100835.59;;;21.87;58.85
56456;BME280;42354;53.218;6.564;2022-09-12T18:00:50;100828.84;;;21.82;59.23
56456;BME280;42354;53.218;6.564;2022-09-12T18:03:34;100835.09;;;21.74;59.57
56456;BME280;42354;53.218;6.564;2022-09-12T18:06:00;100830.09;;;21.70;60.01
56456;BME280;42354;53.218;6.564;2022-09-12T18:08:25;100822.47;;;21.64;60.33
56456;BME280;42354;53.218;6.564;2022-09-12T18:10:51;100814.56;;;21.61;60.70